Terminal Aerodrome Forecast
Issued by NWS Jackson, MS

Home | Current Version | Previous Version | Text Only | Print | Product List | Glossary On
Versions: 1 2 3 4 5 6 7 8 9 10 11 12 13 14 15 16 17 18 19 20 21
000
FTUS44 KJAN 040544
TAFMEI
TAF
KMEI 040544Z 0406/0506 16005KT P6SM FEW040 BKN150
     FM041330 19006KT P6SM VCSH SCT020 BKN030 BKN060
     FM041600 21006KT 6SM -SHRA VCTS SCT030 BKN050CB
     FM042000 22008KT 5SM -TSRA SCT030 OVC050CB
     FM050000 19005KT 6SM -SHRA VCTS SCT020 BKN040CB=

USA.gov is the U.S. government's official web portal to all federal, state and local government web resources and services.